Aviation Digital Data Service (ADDS)

Output produced by METARs form (2109 UTC 20 August 2019)
found at http://www.aviationweather.gov/metar/data/
 
Forecast for: ORER (ERBIL INTL , IQ)
Text: TAF ORER 201600Z 2018/2118 28010KT CAVOK
Forecast period: 1800 UTC 20 August 2019 to 1800 UTC 21 August 2019
Forecast type: FROM: standard forecast or significant change
Winds: from the W (280 degrees) at 12 MPH (10 knots; 5.1 m/s)
Visibility: 6 or more miles 10+ km)
Ceiling: unknown
Clouds: missing
Weather: NSW  (no significant weather)